createdAt,value
2023-05-24T00:01:29.276Z,14.82
2023-05-24T00:04:30.927Z,14.73
2023-05-24T00:07:32.473Z,14.58
2023-05-24T00:10:33.979Z,14.56
2023-05-24T00:13:35.517Z,14.44
2023-05-24T00:16:37.196Z,14.42
2023-05-24T00:19:39.224Z,14.29
2023-05-24T00:22:41.846Z,14.10
2023-05-24T00:25:43.384Z,13.98
2023-05-24T00:28:44.881Z,14.11
2023-05-24T00:31:46.451Z,14.03
2023-05-24T00:34:48.049Z,13.93
2023-05-24T00:37:49.635Z,13.84
2023-05-24T00:40:51.371Z,13.85
2023-05-24T00:43:52.960Z,13.79
2023-05-24T00:46:54.542Z,13.65
2023-05-24T00:49:56.584Z,13.59
2023-05-24T00:53:02.193Z,13.57
2023-05-24T00:56:04.085Z,13.64
2023-05-24T00:59:05.877Z,13.61
2023-05-24T01:02:07.516Z,13.57
2023-05-24T01:05:09.237Z,13.57
2023-05-24T01:08:18.507Z,13.50
2023-05-24T01:11:46.051Z,13.56
2023-05-24T01:15:34.489Z,13.68
2023-05-24T01:18:41.500Z,13.64
2023-05-24T01:22:09.294Z,13.69
2023-05-24T01:25:29.044Z,13.70
2023-05-24T01:28:33.280Z,13.56
2023-05-24T01:31:36.586Z,13.35
2023-05-24T01:34:38.113Z,13.36
2023-05-24T01:37:39.557Z,13.29
2023-05-24T01:40:43.442Z,13.33
2023-05-24T01:43:56.227Z,13.37
2023-05-24T01:47:09.680Z,13.34
2023-05-24T01:50:20.048Z,13.38
2023-05-24T01:53:26.297Z,13.33
2023-05-24T01:56:32.028Z,13.27
2023-05-24T01:59:35.016Z,13.35
2023-05-24T02:02:37.353Z,13.33
2023-05-24T02:05:38.922Z,13.35
2023-05-24T02:08:40.844Z,13.43
2023-05-24T02:11:42.449Z,13.48
2023-05-24T02:14:43.951Z,13.44
2023-05-24T02:17:46.071Z,13.40
2023-05-24T02:20:48.629Z,13.37
2023-05-24T02:23:50.926Z,13.33
2023-05-24T02:26:52.417Z,13.31
2023-05-24T02:29:54.018Z,13.30
2023-05-24T02:32:56.137Z,13.29
2023-05-24T02:35:57.824Z,13.30
2023-05-24T02:38:59.350Z,13.26
2023-05-24T02:42:00.910Z,13.24
2023-05-24T02:45:02.867Z,13.29
2023-05-24T02:48:04.721Z,13.22
2023-05-24T02:51:06.459Z,13.20
2023-05-24T02:54:07.936Z,13.08
2023-05-24T02:57:09.436Z,13.08
2023-05-24T03:00:11.675Z,12.95
2023-05-24T03:03:15.223Z,12.94
2023-05-24T03:06:16.987Z,12.95
2023-05-24T03:09:20.391Z,12.95
2023-05-24T03:12:21.961Z,12.99
2023-05-24T03:15:23.562Z,12.95
2023-05-24T03:18:26.827Z,12.90
2023-05-24T03:21:29.399Z,12.88
2023-05-24T03:24:31.892Z,12.83
2023-05-24T03:27:33.424Z,12.86
2023-05-24T03:30:34.979Z,12.87
2023-05-24T03:33:36.873Z,12.82
2023-05-24T03:36:38.381Z,12.77
2023-05-24T03:39:39.931Z,12.67
2023-05-24T03:43:00.704Z,12.73
2023-05-24T03:46:22.422Z,12.73
2023-05-24T03:49:24.024Z,12.63
2023-05-24T03:52:25.873Z,12.57
2023-05-24T03:55:27.324Z,12.42
2023-05-24T03:58:28.834Z,12.27
2023-05-24T04:01:35.240Z,12.22
2023-05-24T04:04:39.802Z,12.21
2023-05-24T04:07:41.990Z,12.29
2023-05-24T04:10:43.987Z,12.37
2023-05-24T04:13:46.758Z,12.29
2023-05-24T04:16:48.368Z,12.37
2023-05-24T04:19:51.459Z,12.45
2023-05-24T04:22:53.912Z,12.41
2023-05-24T04:25:55.814Z,12.39
2023-05-24T04:28:58.140Z,12.38
2023-05-24T04:32:01.944Z,12.34
2023-05-24T04:35:04.349Z,12.23
2023-05-24T04:38:05.897Z,12.36
2023-05-24T04:41:07.496Z,12.28
2023-05-24T04:44:09.880Z,12.22
2023-05-24T04:47:12.787Z,12.36
2023-05-24T04:50:14.486Z,12.39
2023-05-24T04:53:15.984Z,12.49
2023-05-24T04:56:17.604Z,12.52
2023-05-24T04:59:19.145Z,12.58
2023-05-24T05:02:22.253Z,12.49
2023-05-24T05:05:23.879Z,12.64
2023-05-24T05:08:25.413Z,12.76
2023-05-24T05:11:27.833Z,12.73
2023-05-24T05:14:29.673Z,12.73
2023-05-24T05:17:31.287Z,12.87
2023-05-24T05:20:32.868Z,13.00
2023-05-24T05:23:34.556Z,13.11
2023-05-24T05:26:36.067Z,13.19
2023-05-24T05:29:37.629Z,13.21
2023-05-24T05:32:39.369Z,13.20
2023-05-24T05:35:41.312Z,13.33
2023-05-24T05:38:42.939Z,13.53
2023-05-24T05:41:46.610Z,13.72
2023-05-24T05:44:48.758Z,13.93
2023-05-24T05:47:50.420Z,14.04
2023-05-24T05:50:52.154Z,14.20
2023-05-24T05:53:53.709Z,14.31
2023-05-24T05:56:55.785Z,14.33
2023-05-24T05:59:57.290Z,14.42
2023-05-24T06:02:58.953Z,14.45
2023-05-24T06:06:00.501Z,14.36
2023-05-24T06:09:02.104Z,14.32
2023-05-24T06:12:04.007Z,14.39
2023-05-24T06:15:07.104Z,14.48
2023-05-24T06:18:08.642Z,14.52
2023-05-24T06:21:10.690Z,14.33
2023-05-24T06:24:13.306Z,14.20
2023-05-24T06:27:14.991Z,14.14
2023-05-24T06:30:16.742Z,14.22
2023-05-24T06:33:18.339Z,14.46
2023-05-24T06:36:19.906Z,14.47
2023-05-24T06:39:21.502Z,14.35
2023-05-24T06:42:23.054Z,14.14
2023-05-24T06:45:26.230Z,13.90
2023-05-24T06:48:27.867Z,14.05
2023-05-24T06:51:29.643Z,14.21
2023-05-24T06:54:31.714Z,14.35
2023-05-24T06:57:33.235Z,14.44
2023-05-24T07:00:34.734Z,14.59
2023-05-24T07:03:36.295Z,14.91
2023-05-24T07:06:37.844Z,15.02
2023-05-24T07:09:42.602Z,14.88
2023-05-24T07:12:44.121Z,14.89
2023-05-24T07:15:46.948Z,15.06
2023-05-24T07:18:48.429Z,15.16
2023-05-24T07:21:50.539Z,15.39
2023-05-24T07:24:52.073Z,15.45
2023-05-24T07:27:53.655Z,15.26
2023-05-24T07:30:55.131Z,15.18
2023-05-24T07:33:56.699Z,15.08
2023-05-24T07:37:00.564Z,15.09
2023-05-24T07:40:02.131Z,14.84
2023-05-24T07:43:04.350Z,14.59
2023-05-24T07:46:06.125Z,14.52
2023-05-24T07:49:07.746Z,14.53
2023-05-24T07:52:09.253Z,14.37
2023-05-24T07:55:11.623Z,14.14
2023-05-24T07:58:13.225Z,14.04
2023-05-24T08:01:14.800Z,14.12
2023-05-24T08:04:16.436Z,14.00
2023-05-24T08:07:18.465Z,13.71
2023-05-24T08:10:20.148Z,13.59
2023-05-24T08:13:21.874Z,13.57
2023-05-24T08:16:24.332Z,13.55
2023-05-24T08:19:25.968Z,13.84
2023-05-24T08:22:27.535Z,13.86
2023-05-24T08:25:29.077Z,13.97
2023-05-24T08:28:30.708Z,14.18
2023-05-24T08:31:33.401Z,14.47
2023-05-24T08:34:36.849Z,14.53
2023-05-24T08:37:39.453Z,14.49
2023-05-24T08:40:41.090Z,14.68
2023-05-24T08:43:43.826Z,14.56
2023-05-24T08:46:46.151Z,14.65
2023-05-24T08:49:48.401Z,15.05
2023-05-24T08:52:51.890Z,15.45
2023-05-24T08:55:55.807Z,15.48
2023-05-24T08:58:57.355Z,15.57
2023-05-24T09:02:00.160Z,15.46
2023-05-24T09:05:02.928Z,15.29
2023-05-24T09:08:04.872Z,15.54
2023-05-24T09:11:08.256Z,15.54
2023-05-24T09:14:10.381Z,15.43
2023-05-24T09:17:12.981Z,15.07
2023-05-24T09:20:14.667Z,15.04
2023-05-24T09:23:16.792Z,15.11
2023-05-24T09:26:18.328Z,15.07
2023-05-24T09:29:24.402Z,14.91
2023-05-24T09:32:26.034Z,14.78
2023-05-24T09:35:28.538Z,14.53
2023-05-24T09:38:30.219Z,14.26
2023-05-24T09:41:32.613Z,14.20
2023-05-24T09:44:34.226Z,14.02
2023-05-24T09:47:40.576Z,13.99
2023-05-24T09:50:42.273Z,14.03
2023-05-24T09:53:44.820Z,14.11
2023-05-24T09:56:46.874Z,14.23
2023-05-24T09:59:52.516Z,14.34
2023-05-24T10:03:06.694Z,14.38
2023-05-24T10:06:11.963Z,14.55
2023-05-24T10:09:14.458Z,14.78
2023-05-24T10:12:16.388Z,14.91
2023-05-24T10:15:17.938Z,14.92
2023-05-24T10:18:19.953Z,15.14
2023-05-24T10:21:23.489Z,15.31
2023-05-24T10:24:29.350Z,15.43
2023-05-24T10:27:31.683Z,15.64
2023-05-24T10:30:40.321Z,15.64
2023-05-24T10:33:44.793Z,15.82
2023-05-24T10:36:46.776Z,15.99
2023-05-24T10:39:48.583Z,15.95
2023-05-24T10:42:51.354Z,16.01
2023-05-24T10:45:53.183Z,15.84
2023-05-24T10:49:01.567Z,15.84
2023-05-24T10:52:08.767Z,15.75
2023-05-24T10:55:11.723Z,15.64
2023-05-24T10:58:13.207Z,15.53
2023-05-24T11:01:26.949Z,15.43
2023-05-24T11:04:32.281Z,15.32
2023-05-24T11:07:42.759Z,15.21
2023-05-24T11:10:45.262Z,15.28
2023-05-24T11:13:47.759Z,15.30
2023-05-24T11:16:51.355Z,15.25
2023-05-24T11:19:54.837Z,15.27
2023-05-24T11:22:56.493Z,15.21
2023-05-24T11:25:58.545Z,15.21
2023-05-24T11:29:04.157Z,15.17
2023-05-24T11:32:07.669Z,15.08
2023-05-24T11:35:11.605Z,15.07
2023-05-24T11:38:15.349Z,15.11
2023-05-24T11:41:17.342Z,15.08
2023-05-24T11:44:21.822Z,15.15
2023-05-24T11:47:23.599Z,15.17
2023-05-24T11:50:26.835Z,15.24
2023-05-24T11:53:30.108Z,15.30
2023-05-24T11:56:33.936Z,15.59
2023-05-24T11:59:37.817Z,15.98
2023-05-24T12:02:40.303Z,16.50
2023-05-24T12:05:42.413Z,17.07
2023-05-24T12:08:43.964Z,17.59
2023-05-24T12:11:50.536Z,18.32
2023-05-24T12:14:55.695Z,18.58
2023-05-24T12:17:58.279Z,18.43
2023-05-24T12:20:59.950Z,17.92
2023-05-24T12:24:31.415Z,17.38
2023-05-24T12:27:34.688Z,17.28
2023-05-24T12:30:37.963Z,17.20
2023-05-24T12:33:39.705Z,17.08
2023-05-24T12:36:43.180Z,17.02
2023-05-24T12:39:45.245Z,17.00
2023-05-24T12:42:54.522Z,16.85
2023-05-24T12:45:56.182Z,16.67
2023-05-24T12:48:58.188Z,16.59
2023-05-24T12:52:01.812Z,16.64
2023-05-24T12:55:03.582Z,16.66
2023-05-24T12:58:08.012Z,16.65
2023-05-24T13:01:09.776Z,16.69
2023-05-24T13:04:11.500Z,16.71
2023-05-24T13:07:13.059Z,16.91
2023-05-24T13:10:14.641Z,17.30
2023-05-24T13:13:16.205Z,17.88
2023-05-24T13:16:17.997Z,18.45
2023-05-24T13:19:19.671Z,19.03
2023-05-24T13:22:21.382Z,20.06
2023-05-24T13:25:23.104Z,21.22
2023-05-24T13:28:24.905Z,21.81
2023-05-24T13:31:26.840Z,22.26
2023-05-24T13:34:28.433Z,22.33
2023-05-24T13:37:29.962Z,22.65
2023-05-24T13:40:31.711Z,22.99
2023-05-24T13:43:33.261Z,22.93
2023-05-24T13:46:36.278Z,22.95
2023-05-24T13:49:38.040Z,22.65
2023-05-24T13:52:39.646Z,21.59
2023-05-24T13:55:41.228Z,20.90
2023-05-24T13:58:43.155Z,20.58
2023-05-24T14:01:45.736Z,21.00
2023-05-24T14:04:47.361Z,21.89
2023-05-24T14:07:49.149Z,22.41
2023-05-24T14:10:51.437Z,22.69
2023-05-24T14:16:57.809Z,22.66
2023-05-24T14:19:59.533Z,22.77
2023-05-24T14:23:01.633Z,22.17
2023-05-24T14:26:03.275Z,21.23
2023-05-24T14:29:04.827Z,20.44
2023-05-24T14:32:06.628Z,19.93
2023-05-24T14:35:08.598Z,19.33
2023-05-24T14:38:11.452Z,19.10
2023-05-24T14:41:12.958Z,20.53
2023-05-24T14:44:14.466Z,21.72
2023-05-24T14:47:15.980Z,22.81
2023-05-24T14:50:17.894Z,23.36
2023-05-24T14:53:19.507Z,22.82
2023-05-24T14:56:21.089Z,21.83
2023-05-24T14:59:22.577Z,21.41
2023-05-24T15:02:24.167Z,20.60
2023-05-24T15:05:25.827Z,19.98
2023-05-24T15:08:27.819Z,19.97
2023-05-24T15:11:29.580Z,20.26
2023-05-24T15:14:31.109Z,20.42
2023-05-24T15:17:32.614Z,20.69
2023-05-24T15:20:35.660Z,20.67
2023-05-24T15:23:43.449Z,21.63
2023-05-24T15:26:45.137Z,22.08
2023-05-24T15:29:46.722Z,23.59
2023-05-24T15:32:48.312Z,25.11
2023-05-24T15:35:49.901Z,26.49
2023-05-24T15:38:51.568Z,24.87
2023-05-24T15:41:53.265Z,24.67
2023-05-24T15:44:54.766Z,24.31
2023-05-24T15:47:56.540Z,25.79
2023-05-24T15:51:57.562Z,25.11
2023-05-24T15:54:19.704Z,26.10
2023-05-24T15:57:21.886Z,23.78
2023-05-24T16:00:23.553Z,22.04
2023-05-24T16:03:25.137Z,21.12
2023-05-24T16:06:26.785Z,20.57
2023-05-24T16:09:28.313Z,20.60
2023-05-24T16:12:30.529Z,22.47
2023-05-24T16:15:34.793Z,25.77
2023-05-24T16:18:37.183Z,27.82
2023-05-24T16:21:39.149Z,24.81
2023-05-24T16:24:40.680Z,21.97
2023-05-24T16:27:42.241Z,20.47
2023-05-24T16:30:44.140Z,20.17
2023-05-24T16:33:46.113Z,20.88
2023-05-24T16:36:47.831Z,22.37
2023-05-24T16:39:49.438Z,24.19
2023-05-24T16:42:52.644Z,26.22
2023-05-24T16:45:55.235Z,23.45
2023-05-24T16:48:56.904Z,21.41
2023-05-24T16:51:58.454Z,21.15
2023-05-24T16:55:00.170Z,21.56
2023-05-24T16:58:01.705Z,21.37
2023-05-24T17:01:03.433Z,23.56
2023-05-24T17:04:05.088Z,27.37
2023-05-24T17:07:06.668Z,29.67
2023-05-24T17:10:08.686Z,31.45
2023-05-24T17:13:10.229Z,28.10
2023-05-24T17:16:13.820Z,25.82
2023-05-24T17:19:15.502Z,23.25
2023-05-24T17:22:17.065Z,21.94
2023-05-24T17:25:18.569Z,21.13
2023-05-24T17:28:20.223Z,20.97
2023-05-24T17:31:22.072Z,21.34
2023-05-24T17:34:23.643Z,24.11
2023-05-24T17:37:25.220Z,26.70
2023-05-24T17:40:26.785Z,27.81
2023-05-24T17:43:29.084Z,28.75
2023-05-24T17:46:32.060Z,29.63
2023-05-24T17:49:35.069Z,29.96
2023-05-24T17:52:36.834Z,29.68
2023-05-24T17:55:38.369Z,29.55
2023-05-24T17:58:40.049Z,29.14
2023-05-24T18:01:41.772Z,28.87
2023-05-24T18:04:43.410Z,28.42
2023-05-24T18:07:45.084Z,27.87
2023-05-24T18:10:46.647Z,26.99
2023-05-24T18:13:48.126Z,26.88
2023-05-24T18:16:49.944Z,26.66
2023-05-24T18:19:51.568Z,26.51
2023-05-24T18:22:53.129Z,26.19
2023-05-24T18:26:00.336Z,25.52
2023-05-24T18:29:03.287Z,24.51
2023-05-24T18:32:04.881Z,23.10
2023-05-24T18:35:07.065Z,21.81
2023-05-24T18:38:09.657Z,21.38
2023-05-24T18:41:12.052Z,20.78
2023-05-24T18:44:14.850Z,19.74
2023-05-24T18:47:16.478Z,18.58
2023-05-24T18:50:23.331Z,17.66
2023-05-24T18:53:25.849Z,17.09
2023-05-24T18:56:28.066Z,16.68
2023-05-24T18:59:31.539Z,16.36
2023-05-24T19:02:38.420Z,16.06
2023-05-24T19:05:43.390Z,15.83
2023-05-24T19:08:45.612Z,15.59
2023-05-24T19:11:47.960Z,15.45
2023-05-24T19:14:49.445Z,15.25
2023-05-24T19:17:53.176Z,15.02
2023-05-24T19:20:54.823Z,14.86
2023-05-24T19:23:56.317Z,14.75
2023-05-24T19:26:57.979Z,14.59
2023-05-24T19:30:00.125Z,14.37
2023-05-24T19:33:01.744Z,14.16
2023-05-24T19:36:03.464Z,14.13
2023-05-24T19:39:05.038Z,14.04
2023-05-24T19:42:06.827Z,13.93
2023-05-24T19:45:09.531Z,13.84
2023-05-24T19:48:11.113Z,13.59
2023-05-24T19:51:15.444Z,13.44
2023-05-24T19:54:16.945Z,13.30
2023-05-24T19:57:18.507Z,13.24
2023-05-24T20:00:20.074Z,13.23
2023-05-24T20:03:21.844Z,13.19
2023-05-24T20:06:23.396Z,13.07
2023-05-24T20:09:24.976Z,13.16
2023-05-24T20:12:27.655Z,13.10
2023-05-24T20:15:29.560Z,13.01
2023-05-24T20:18:31.024Z,12.88
2023-05-24T20:21:32.743Z,12.79
2023-05-24T20:24:34.238Z,12.59
2023-05-24T20:27:35.793Z,12.42
2023-05-24T20:30:37.529Z,12.12
2023-05-24T20:33:39.254Z,11.95
2023-05-24T20:36:43.391Z,11.73
2023-05-24T20:39:45.379Z,11.54
2023-05-24T20:42:46.922Z,11.42
2023-05-24T20:45:48.986Z,11.29
2023-05-24T20:48:51.619Z,11.08
2023-05-24T20:51:53.187Z,11.01
2023-05-24T20:54:54.746Z,10.90
2023-05-24T20:57:56.311Z,10.74
2023-05-24T21:00:57.981Z,10.75
2023-05-24T21:03:59.611Z,10.68
2023-05-24T21:07:01.113Z,10.54
2023-05-24T21:10:02.723Z,10.39
2023-05-24T21:13:06.079Z,10.30
2023-05-24T21:16:07.644Z,10.21
2023-05-24T21:19:09.167Z,10.11
2023-05-24T21:22:10.711Z,10.10
2023-05-24T21:25:12.178Z,10.03
2023-05-24T21:28:14.088Z,9.98
2023-05-24T21:31:17.002Z,9.90
2023-05-24T21:34:18.547Z,9.82
2023-05-24T21:37:20.085Z,9.70
2023-05-24T21:40:21.619Z,9.59
2023-05-24T21:43:23.866Z,9.53
2023-05-24T21:46:25.475Z,9.50
2023-05-24T21:49:27.604Z,9.39
2023-05-24T21:52:29.442Z,9.31
2023-05-24T21:55:31.395Z,9.30
2023-05-24T21:58:33.132Z,9.29
2023-05-24T22:01:34.734Z,9.25
2023-05-24T22:04:36.241Z,9.28
2023-05-24T22:07:37.831Z,9.29
2023-05-24T22:10:39.330Z,9.29
2023-05-24T22:13:40.839Z,9.19
2023-05-24T22:16:42.398Z,9.15
2023-05-24T22:19:44.007Z,9.10
2023-05-24T22:22:48.398Z,9.05
2023-05-24T22:25:50.026Z,8.95
2023-05-24T22:29:00.451Z,8.95
2023-05-24T22:32:02.011Z,8.93
2023-05-24T22:35:03.748Z,8.86
2023-05-24T22:38:05.582Z,8.79
2023-05-24T22:41:07.567Z,8.72
2023-05-24T22:44:09.130Z,8.66
2023-05-24T22:47:13.916Z,8.77
2023-05-24T22:50:15.771Z,8.81
2023-05-24T22:53:17.987Z,8.81
2023-05-24T22:56:19.610Z,8.81
2023-05-24T22:59:21.113Z,8.72
2023-05-24T23:02:22.614Z,8.79
2023-05-24T23:05:24.299Z,8.89
2023-05-24T23:08:25.975Z,8.88
2023-05-24T23:11:32.541Z,8.84
2023-05-24T23:14:38.371Z,8.76
2023-05-24T23:17:40.075Z,8.72
2023-05-24T23:20:42.674Z,8.65
2023-05-24T23:23:46.169Z,8.61
2023-05-24T23:26:47.756Z,8.57
2023-05-24T23:29:49.213Z,8.61
2023-05-24T23:32:50.808Z,8.61
2023-05-24T23:35:53.105Z,8.60
2023-05-24T23:38:54.592Z,8.72
2023-05-24T23:41:56.080Z,8.66
2023-05-24T23:44:57.566Z,8.63
2023-05-24T23:47:59.583Z,8.74
2023-05-24T23:51:01.130Z,8.79
2023-05-24T23:54:02.625Z,8.84
2023-05-24T23:57:04.283Z,8.82
